createdAt,value
2022-09-04T00:00:10.750Z,58.45
2022-09-04T00:03:02.716Z,58.60
2022-09-04T00:05:41.225Z,58.61
2022-09-04T00:08:50.125Z,58.59
2022-09-04T00:11:45.815Z,58.73
2022-09-04T00:14:20.318Z,58.78
2022-09-04T00:17:06.053Z,58.89
2022-09-04T00:19:44.480Z,58.78
2022-09-04T00:22:30.132Z,58.92
2022-09-04T00:25:25.627Z,58.97
2022-09-04T00:28:11.554Z,58.97
2022-09-04T00:30:54.316Z,58.86
2022-09-04T00:34:11.999Z,58.97
2022-09-04T00:36:50.998Z,59.12
2022-09-04T00:39:50.386Z,59.01
2022-09-04T00:43:03.987Z,59.19
2022-09-04T00:45:46.151Z,59.19
2022-09-04T00:48:50.028Z,59.20
2022-09-04T00:51:45.769Z,59.22
2022-09-04T00:54:42.647Z,59.30
2022-09-04T00:57:16.260Z,59.43
2022-09-04T01:00:05.980Z,59.36
2022-09-04T01:02:54.990Z,59.42
2022-09-04T01:05:50.374Z,59.48
2022-09-04T01:08:44.332Z,59.53
2022-09-04T01:11:40.107Z,59.57
2022-09-04T01:14:15.542Z,59.79
2022-09-04T01:17:14.893Z,59.62
2022-09-04T01:20:06.912Z,59.84
2022-09-04T01:23:04.623Z,59.86
2022-09-04T01:26:02.322Z,59.87
2022-09-04T01:28:55.138Z,59.92
2022-09-04T01:32:05.589Z,59.97
2022-09-04T01:34:49.838Z,60.06
2022-09-04T01:37:47.632Z,60.00
2022-09-04T01:40:25.806Z,60.07
2022-09-04T01:43:21.101Z,60.12
2022-09-04T01:46:01.431Z,59.99
2022-09-04T01:48:55.797Z,60.06
2022-09-04T01:51:46.314Z,60.28
2022-09-04T01:54:32.399Z,60.42
2022-09-04T01:57:16.336Z,60.24
2022-09-04T02:00:00.805Z,60.39
2022-09-04T02:02:59.277Z,60.39
2022-09-04T02:06:11.073Z,60.41
2022-09-04T02:09:13.690Z,60.63
2022-09-04T02:11:56.979Z,60.56
2022-09-04T02:15:00.891Z,60.53
2022-09-04T02:17:45.957Z,60.55
2022-09-04T02:20:24.244Z,60.52
2022-09-04T02:23:18.946Z,60.58
2022-09-04T02:26:17.798Z,60.59
2022-09-04T02:29:33.246Z,60.65
2022-09-04T02:32:20.153Z,60.75
2022-09-04T02:35:14.171Z,60.73
2022-09-04T02:37:45.684Z,60.80
2022-09-04T02:40:39.796Z,60.78
2022-09-04T02:43:24.828Z,60.93
2022-09-04T02:46:20.687Z,60.89
2022-09-04T02:49:28.366Z,61.07
2022-09-04T02:52:34.522Z,61.13
2022-09-04T02:55:19.436Z,61.21
2022-09-04T02:58:26.236Z,61.29
2022-09-04T03:01:22.647Z,61.39
2022-09-04T03:04:13.358Z,61.38
2022-09-04T03:06:52.019Z,61.60
2022-09-04T03:09:37.909Z,61.54
2022-09-04T03:12:11.160Z,61.64
2022-09-04T03:14:43.947Z,61.65
2022-09-04T03:17:49.839Z,61.93
2022-09-04T03:20:28.097Z,61.86
2022-09-04T03:23:10.048Z,61.89
2022-09-04T03:26:10.063Z,61.98
2022-09-04T03:29:10.137Z,62.14
2022-09-04T03:31:52.438Z,62.21
2022-09-04T03:34:44.934Z,62.14
2022-09-04T03:37:35.081Z,62.21
2022-09-04T03:40:18.100Z,62.36
2022-09-04T03:43:03.434Z,62.36
2022-09-04T03:46:19.367Z,62.38
2022-09-04T03:49:08.988Z,62.55
2022-09-04T03:52:02.625Z,62.65
2022-09-04T03:54:39.280Z,62.66
2022-09-04T03:57:39.486Z,62.68
2022-09-04T04:00:21.256Z,62.74
2022-09-04T04:03:21.154Z,62.85
2022-09-04T04:06:13.435Z,62.95
2022-09-04T04:09:14.220Z,63.02
2022-09-04T04:11:57.472Z,62.98
2022-09-04T04:14:38.387Z,63.10
2022-09-04T04:17:22.005Z,63.16
2022-09-04T04:20:10.533Z,63.12
2022-09-04T04:23:17.918Z,63.30
2022-09-04T04:26:27.293Z,63.29
2022-09-04T04:29:39.493Z,63.39
2022-09-04T04:32:39.511Z,63.47
2022-09-04T04:35:18.204Z,63.55
2022-09-04T04:38:05.787Z,63.44
2022-09-04T04:41:11.396Z,63.44
2022-09-04T04:44:10.353Z,63.58
2022-09-04T04:47:19.873Z,63.54
2022-09-04T04:50:08.867Z,63.72
2022-09-04T04:52:55.068Z,63.72
2022-09-04T04:55:54.938Z,63.75
2022-09-04T04:58:23.801Z,63.78
2022-09-04T05:01:11.950Z,63.84
2022-09-04T05:03:52.365Z,63.94
2022-09-04T05:06:42.246Z,63.89
2022-09-04T05:09:22.122Z,64.03
2022-09-04T05:12:03.820Z,63.96
2022-09-04T05:14:55.599Z,64.12
2022-09-04T05:17:50.123Z,64.00
2022-09-04T05:20:30.037Z,64.14
2022-09-04T05:23:24.980Z,64.12
2022-09-04T05:26:05.121Z,64.18
2022-09-04T05:28:50.839Z,64.11
2022-09-04T05:31:43.564Z,64.02
2022-09-04T05:34:21.379Z,64.15
2022-09-04T05:37:15.330Z,64.22
2022-09-04T05:40:19.176Z,64.15
2022-09-04T05:42:56.018Z,64.26
2022-09-04T05:45:59.720Z,64.28
2022-09-04T05:48:59.236Z,64.27
2022-09-04T05:51:27.134Z,64.42
2022-09-04T05:54:20.083Z,64.20
2022-09-04T05:57:10.462Z,64.35
2022-09-04T06:00:08.414Z,64.42
2022-09-04T06:03:10.138Z,64.35
2022-09-04T06:06:22.852Z,64.44
2022-09-04T06:09:12.356Z,64.33
2022-09-04T06:11:52.099Z,64.17
2022-09-04T06:14:34.750Z,63.81
2022-09-04T06:17:21.218Z,64.00
2022-09-04T06:20:19.032Z,63.80
2022-09-04T06:22:57.056Z,64.04
2022-09-04T06:25:36.804Z,64.09
2022-09-04T06:28:37.755Z,63.98
2022-09-04T06:31:05.555Z,64.32
2022-09-04T06:33:41.768Z,64.39
2022-09-04T06:36:38.917Z,64.24
2022-09-04T06:39:34.306Z,64.35
2022-09-04T06:42:25.547Z,64.46
2022-09-04T06:45:25.426Z,64.42
2022-09-04T06:48:10.581Z,64.41
2022-09-04T06:51:27.683Z,64.32
2022-09-04T06:54:28.612Z,64.24
2022-09-04T06:57:13.741Z,64.20
2022-09-04T07:00:00.993Z,64.16
2022-09-04T07:02:54.211Z,64.07
2022-09-04T07:05:29.636Z,64.03
2022-09-04T07:08:03.577Z,64.01
2022-09-04T07:11:04.783Z,64.06
2022-09-04T07:13:52.120Z,64.01
2022-09-04T07:16:36.518Z,64.14
2022-09-04T07:19:42.576Z,64.23
2022-09-04T07:22:37.872Z,64.29
2022-09-04T07:25:26.698Z,64.31
2022-09-04T07:28:24.361Z,64.30
2022-09-04T07:31:26.927Z,64.13
2022-09-04T07:34:25.469Z,64.11
2022-09-04T07:37:12.347Z,63.88
2022-09-04T07:40:11.555Z,63.77
2022-09-04T07:42:53.870Z,63.09
2022-09-04T07:45:30.124Z,62.08
2022-09-04T07:48:37.553Z,63.06
2022-09-04T07:51:17.006Z,62.99
2022-09-04T07:54:12.473Z,63.12
2022-09-04T07:57:11.333Z,63.30
2022-09-04T08:00:10.422Z,62.77
2022-09-04T08:02:43.824Z,62.69
2022-09-04T08:05:46.216Z,62.72
2022-09-04T08:08:30.627Z,62.28
2022-09-04T08:11:15.637Z,61.83
2022-09-04T08:14:26.880Z,61.59
2022-09-04T08:17:46.531Z,61.91
2022-09-04T08:20:46.226Z,61.56
2022-09-04T08:23:16.936Z,60.92
2022-09-04T08:26:15.982Z,60.88
2022-09-04T08:28:59.672Z,61.10
2022-09-04T08:31:43.216Z,60.81
2022-09-04T08:34:20.257Z,60.74
2022-09-04T08:37:10.687Z,60.57
2022-09-04T08:40:17.638Z,60.34
2022-09-04T08:43:05.914Z,60.23
2022-09-04T08:45:48.315Z,59.36
2022-09-04T08:49:12.099Z,59.34
2022-09-04T08:51:41.308Z,59.47
2022-09-04T08:54:26.973Z,59.13
2022-09-04T08:57:18.283Z,58.83
2022-09-04T09:00:17.393Z,58.76
2022-09-04T09:03:07.083Z,58.17
2022-09-04T09:05:48.010Z,58.01
2022-09-04T09:08:53.501Z,57.79
2022-09-04T09:11:21.265Z,57.56
2022-09-04T09:14:28.821Z,57.51
2022-09-04T09:17:21.503Z,57.15
2022-09-04T09:20:22.859Z,56.56
2022-09-04T09:23:18.811Z,56.55
2022-09-04T09:26:07.107Z,56.01
2022-09-04T09:28:35.752Z,56.07
2022-09-04T09:31:53.849Z,55.68
2022-09-04T09:34:49.289Z,55.35
2022-09-04T09:37:29.211Z,55.39
2022-09-04T09:40:40.083Z,55.16
2022-09-04T09:43:32.525Z,55.01
2022-09-04T09:46:38.958Z,54.69
2022-09-04T09:49:43.243Z,54.70
2022-09-04T09:52:48.828Z,54.29
2022-09-04T09:55:31.889Z,54.21
2022-09-04T09:58:31.531Z,54.08
2022-09-04T10:01:08.644Z,53.79
2022-09-04T10:03:40.545Z,53.53
2022-09-04T10:06:51.394Z,53.79
2022-09-04T10:09:44.113Z,53.61
2022-09-04T10:12:41.125Z,53.45
2022-09-04T10:15:26.937Z,53.33
2022-09-04T10:17:54.824Z,53.12
2022-09-04T10:20:43.247Z,53.16
2022-09-04T10:23:41.804Z,52.98
2022-09-04T10:26:31.721Z,52.86
2022-09-04T10:29:37.303Z,52.69
2022-09-04T10:32:05.053Z,52.07
2022-09-04T10:35:07.648Z,52.23
2022-09-04T10:38:02.095Z,52.36
2022-09-04T10:40:51.655Z,52.47
2022-09-04T10:43:38.419Z,51.97
2022-09-04T10:46:23.200Z,51.85
2022-09-04T10:49:19.282Z,52.10
2022-09-04T10:52:23.094Z,52.11
2022-09-04T10:55:03.043Z,51.65
2022-09-04T10:57:53.495Z,51.85
2022-09-04T11:00:29.449Z,51.92
2022-09-04T11:03:20.929Z,51.79
2022-09-04T11:06:17.226Z,51.58
2022-09-04T11:09:30.563Z,51.54
2022-09-04T11:12:18.110Z,51.56
2022-09-04T11:15:28.163Z,51.39
2022-09-04T11:18:11.905Z,51.37
2022-09-04T11:21:03.349Z,51.42
2022-09-04T11:24:02.695Z,51.37
2022-09-04T11:26:33.439Z,51.11
2022-09-04T11:29:15.716Z,51.13
2022-09-04T11:32:14.495Z,51.01
2022-09-04T11:34:45.400Z,51.02
2022-09-04T11:37:16.193Z,51.00
2022-09-04T11:39:53.884Z,50.76
2022-09-04T11:43:16.117Z,50.56
2022-09-04T11:45:56.256Z,50.72
2022-09-04T11:48:57.008Z,50.59
2022-09-04T11:51:49.657Z,50.48
2022-09-04T11:54:36.060Z,50.54
2022-09-04T11:57:22.046Z,50.22
2022-09-04T12:00:09.456Z,50.12
2022-09-04T12:02:44.134Z,50.06
2022-09-04T12:05:54.940Z,49.90
2022-09-04T12:08:35.983Z,49.88
2022-09-04T12:11:33.310Z,50.01
2022-09-04T12:14:10.273Z,49.85
2022-09-04T12:16:53.451Z,49.61
2022-09-04T12:19:28.535Z,49.77
2022-09-04T12:22:10.624Z,49.73
2022-09-04T12:24:52.024Z,49.64
2022-09-04T12:27:49.380Z,49.48
2022-09-04T12:30:35.779Z,49.39
2022-09-04T12:33:20.087Z,49.29
2022-09-04T12:36:00.745Z,48.99
2022-09-04T12:38:41.292Z,49.15
2022-09-04T12:41:36.238Z,49.10
2022-09-04T12:44:27.877Z,48.83
2022-09-04T12:47:17.056Z,48.71
2022-09-04T12:49:55.696Z,48.70
2022-09-04T12:52:35.685Z,48.34
2022-09-04T12:55:16.931Z,48.43
2022-09-04T12:58:02.993Z,48.68
2022-09-04T13:00:49.814Z,48.18
2022-09-04T13:03:34.047Z,48.28
2022-09-04T13:06:37.350Z,48.18
2022-09-04T13:09:28.346Z,48.29
2022-09-04T13:12:26.126Z,47.99
2022-09-04T13:15:48.409Z,48.14
2022-09-04T13:18:58.799Z,48.04
2022-09-04T13:21:43.415Z,47.90
2022-09-04T13:24:20.777Z,48.08
2022-09-04T13:26:51.876Z,47.96
2022-09-04T13:29:40.610Z,47.78
2022-09-04T13:32:29.940Z,47.41
2022-09-04T13:35:10.137Z,47.61
2022-09-04T13:37:56.704Z,47.41
2022-09-04T13:40:55.284Z,47.65
2022-09-04T13:43:42.203Z,47.50
2022-09-04T13:46:17.174Z,47.55
2022-09-04T13:48:47.619Z,47.47
2022-09-04T13:51:25.258Z,47.43
2022-09-04T13:54:11.657Z,47.37
2022-09-04T13:56:42.321Z,47.57
2022-09-04T13:59:17.733Z,47.37
2022-09-04T14:01:50.395Z,47.26
2022-09-04T14:04:28.152Z,46.91
2022-09-04T14:07:06.433Z,47.17
2022-09-04T14:09:41.076Z,47.02
2022-09-04T14:12:54.421Z,46.84
2022-09-04T14:15:52.060Z,47.05
2022-09-04T14:19:14.980Z,46.72
2022-09-04T14:22:08.776Z,47.03
2022-09-04T14:24:42.798Z,47.18
2022-09-04T14:27:29.934Z,47.05
2022-09-04T14:30:13.639Z,46.87
2022-09-04T14:33:05.036Z,46.72
2022-09-04T14:36:07.638Z,46.68
2022-09-04T14:39:06.808Z,46.71
2022-09-04T14:41:36.389Z,46.58
2022-09-04T14:44:18.688Z,46.73
2022-09-04T14:47:09.757Z,46.49
2022-09-04T14:49:50.676Z,46.65
2022-09-04T14:52:23.991Z,46.49
2022-09-04T14:54:55.212Z,46.55
2022-09-04T14:57:36.423Z,46.52
2022-09-04T15:00:21.169Z,46.50
2022-09-04T15:03:17.377Z,46.36
2022-09-04T15:05:56.151Z,46.30
2022-09-04T15:08:36.761Z,46.15
2022-09-04T15:11:34.984Z,46.26
2022-09-04T15:14:24.717Z,46.27
2022-09-04T15:17:00.456Z,46.19
2022-09-04T15:19:51.952Z,46.30
2022-09-04T15:22:29.751Z,46.35
2022-09-04T15:25:00.718Z,45.99
2022-09-04T15:27:35.211Z,46.14
2022-09-04T15:30:17.622Z,46.13
2022-09-04T15:32:47.511Z,46.15
2022-09-04T15:35:33.294Z,46.07
2022-09-04T15:38:21.361Z,45.94
2022-09-04T15:41:15.690Z,46.07
2022-09-04T15:43:50.807Z,45.79
2022-09-04T15:46:43.637Z,46.06
2022-09-04T15:49:29.213Z,45.98
2022-09-04T15:52:15.959Z,45.85
2022-09-04T15:54:46.654Z,45.84
2022-09-04T15:57:50.294Z,45.94
2022-09-04T16:00:24.550Z,45.74
2022-09-04T16:03:22.443Z,45.87
2022-09-04T16:06:16.535Z,45.84
2022-09-04T16:08:52.615Z,45.90
2022-09-04T16:11:27.695Z,45.97
2022-09-04T16:14:03.777Z,45.99
2022-09-04T16:16:49.772Z,46.05
2022-09-04T16:19:24.392Z,45.97
2022-09-04T16:21:55.126Z,46.09
2022-09-04T16:24:35.937Z,45.93
2022-09-04T16:27:09.189Z,45.65
2022-09-04T16:29:40.025Z,45.94
2022-09-04T16:32:11.054Z,45.89
2022-09-04T16:34:53.369Z,45.91
2022-09-04T16:37:32.903Z,45.95
2022-09-04T16:40:21.067Z,45.90
2022-09-04T16:43:00.386Z,45.97
2022-09-04T16:45:39.757Z,45.79
2022-09-04T16:48:34.789Z,45.92
2022-09-04T16:51:39.097Z,45.88
2022-09-04T16:54:13.667Z,45.90
2022-09-04T16:57:12.093Z,45.82
2022-09-04T16:59:55.993Z,45.94
2022-09-04T17:02:49.210Z,46.04
2022-09-04T17:05:41.624Z,46.07
2022-09-04T17:08:25.636Z,46.01
2022-09-04T17:11:04.539Z,46.03
2022-09-04T17:13:56.187Z,46.02
2022-09-04T17:16:40.517Z,46.05
2022-09-04T17:19:14.106Z,46.08
2022-09-04T17:28:04.915Z,46.13
2022-09-04T17:29:13.595Z,46.07
2022-09-04T17:29:22.449Z,46.08
2022-09-04T17:31:51.440Z,46.17
2022-09-04T17:40:10.328Z,46.20
2022-09-04T17:40:53.994Z,46.29
2022-09-04T17:41:32.357Z,46.25
2022-09-04T17:44:02.375Z,46.24
2022-09-04T17:46:45.554Z,46.27
2022-09-04T17:49:20.974Z,46.35
2022-09-04T17:52:01.664Z,46.23
2022-09-04T17:54:33.109Z,46.38
2022-09-04T17:57:38.279Z,46.38
2022-09-04T18:00:12.055Z,46.44
2022-09-04T18:02:56.657Z,46.50
2022-09-04T18:05:32.339Z,46.54
2022-09-04T18:08:30.058Z,46.54
2022-09-04T18:11:13.223Z,46.62
2022-09-04T18:13:52.524Z,46.69
2022-09-04T18:16:35.782Z,46.66
2022-09-04T18:19:22.524Z,46.67
2022-09-04T18:22:25.722Z,46.78
2022-09-04T18:25:16.760Z,46.77
2022-09-04T18:28:06.523Z,46.91
2022-09-04T18:36:45.456Z,47.05
2022-09-04T18:37:18.590Z,47.03
2022-09-04T18:37:44.141Z,47.04
2022-09-04T18:40:12.940Z,47.19
2022-09-04T18:50:38.906Z,47.12
2022-09-04T18:50:40.540Z,47.07
2022-09-04T18:50:53.512Z,47.16
2022-09-04T18:51:58.525Z,47.23
2022-09-04T18:54:40.578Z,47.36
2022-09-04T18:57:35.469Z,47.39
2022-09-04T19:00:11.677Z,47.66
2022-09-04T19:02:54.249Z,47.61
2022-09-04T19:05:45.028Z,47.63
2022-09-04T19:08:39.029Z,47.74
2022-09-04T19:11:21.047Z,47.80
2022-09-04T19:14:09.967Z,47.77
2022-09-04T19:16:53.661Z,47.91
2022-09-04T19:19:33.674Z,47.86
2022-09-04T19:22:22.943Z,48.01
2022-09-04T19:25:07.249Z,48.22
2022-09-04T19:27:53.186Z,48.29
2022-09-04T19:30:33.473Z,48.14
2022-09-04T19:33:16.772Z,48.25
2022-09-04T19:36:21.442Z,48.35
2022-09-04T19:45:57.805Z,48.45
2022-09-04T19:46:02.353Z,48.62
2022-09-04T19:46:15.403Z,48.72
2022-09-04T19:48:03.680Z,48.83
2022-09-04T19:53:21.713Z,48.83
2022-09-04T19:53:41.115Z,48.87
2022-09-04T19:56:24.784Z,49.10
2022-09-04T19:59:12.644Z,49.06
2022-09-04T20:02:11.309Z,49.08
2022-09-04T20:04:47.316Z,49.39
2022-09-04T20:07:24.985Z,49.42
2022-09-04T20:09:58.835Z,49.50
2022-09-04T20:12:51.123Z,49.47
2022-09-04T20:15:31.575Z,49.58
2022-09-04T20:18:22.993Z,49.64
2022-09-04T20:21:05.526Z,49.94
2022-09-04T20:23:39.118Z,49.89
2022-09-04T20:26:26.871Z,49.93
2022-09-04T20:29:00.756Z,49.96
2022-09-04T20:31:45.363Z,50.08
2022-09-04T20:34:28.434Z,50.25
2022-09-04T20:37:15.693Z,50.23
2022-09-04T20:40:09.033Z,50.28
2022-09-04T20:43:03.358Z,50.45
2022-09-04T20:47:20.343Z,50.59
2022-09-04T20:52:48.682Z,50.76
2022-09-04T20:52:56.703Z,50.81
2022-09-04T20:55:09.120Z,50.90
2022-09-04T21:02:31.944Z,50.94
2022-09-04T21:03:09.516Z,51.10
2022-09-04T21:04:43.111Z,51.23
2022-09-04T21:07:36.980Z,51.20
2022-09-04T21:10:34.441Z,51.42
2022-09-04T21:13:20.812Z,51.52
2022-09-04T21:16:21.625Z,51.52
2022-09-04T21:19:28.616Z,51.66
2022-09-04T21:22:33.442Z,51.78
2022-09-04T21:25:08.735Z,51.82
2022-09-04T21:28:00.121Z,52.02
2022-09-04T21:30:45.325Z,52.06
2022-09-04T21:33:34.521Z,52.21
2022-09-04T21:36:48.176Z,52.28
2022-09-04T21:39:45.917Z,52.27
2022-09-04T21:42:41.833Z,52.39
2022-09-04T21:45:41.638Z,52.43
2022-09-04T21:48:28.289Z,52.68
2022-09-04T21:51:16.896Z,52.68
2022-09-04T21:53:59.429Z,52.83
2022-09-04T22:02:26.010Z,52.81
2022-09-04T22:02:36.189Z,52.84
2022-09-04T22:03:36.410Z,52.96
2022-09-04T22:08:49.754Z,53.12
2022-09-04T22:13:30.218Z,53.25
2022-09-04T22:13:39.194Z,53.38
2022-09-04T22:16:00.062Z,53.57
2022-09-04T22:19:05.670Z,53.61
2022-09-04T22:22:10.309Z,53.67
2022-09-04T22:25:06.838Z,53.72
2022-09-04T22:28:12.749Z,53.85
2022-09-04T22:31:05.145Z,53.95
2022-09-04T22:34:14.896Z,54.05
2022-09-04T22:37:05.016Z,54.13
2022-09-04T22:39:35.797Z,54.16
2022-09-04T22:42:34.505Z,54.14
2022-09-04T22:45:17.603Z,54.26
2022-09-04T22:48:22.405Z,54.33
2022-09-04T22:51:07.172Z,54.41
2022-09-04T22:53:55.308Z,54.42
2022-09-04T22:57:03.375Z,54.51
2022-09-04T23:00:04.033Z,54.70
2022-09-04T23:03:17.094Z,54.74
2022-09-04T23:07:22.061Z,54.90
2022-09-04T23:13:49.105Z,54.99
2022-09-04T23:13:50.645Z,55.00
2022-09-04T23:15:49.900Z,55.06
2022-09-04T23:21:47.946Z,55.08
2022-09-04T23:26:35.014Z,55.10
2022-09-04T23:26:41.908Z,55.33
2022-09-04T23:28:38.773Z,55.48
2022-09-04T23:31:29.207Z,55.43
2022-09-04T23:34:35.021Z,55.40
2022-09-04T23:37:51.489Z,55.55
2022-09-04T23:41:10.424Z,55.69
2022-09-04T23:44:34.708Z,55.89
2022-09-04T23:47:48.002Z,55.91
2022-09-04T23:51:13.643Z,56.14
2022-09-04T23:54:25.243Z,56.20
2022-09-04T23:57:55.187Z,56.21
